x

La Perouse Bank (46206) Wave Buoy

2:00 - Wed 24th May 2017 All times are PDT. -7 hours from GMT.

  • Sig Wave height 9.8ft
  • Peak Period 9s
  • Wind
    20mph, 25mph gusts
  • Sea Temp 52°f
  • Aire Temp 51°f
  • Sea Pressure 1019.9mb
  • La Perouse Bank
  • La Perouse Bank

More Historic Weather Station data

Upgrade to MSW Pro to gain access to the past 30 days of data for over 8000 Wavebouys and Weather Stations around the globe.

Join Pro

Comparision Forecast

View Surf forecast
   
mié 05/24 2:00 10ft 9s 20 25 mph 1019.9mb 52f 51f
1:00 11ft 8s 25 29 mph 1019.8mb 52f 51f
12:00 10.5ft 9s 27 36 mph 1019.7mb 53f 51f
mar 05/23 11:00 10.5ft 8s 31 36 mph 1019.4mb 53f 51f
10:00 11ft 8s 29 36 mph 1019.6mb 53f 52f
9:00 11ft 8s 31 38 mph 1019.2mb 53f 52f
8:00 11ft 8s 31 40 mph 1019mb 54f 52f
6:00 10ft 7s 31 40 mph 1019.4mb 54f 52f
5:00 9.5ft 7s 31 40 mph 1019.7mb 54f 52f
4:00 9.5ft 6s 31 36 mph 1019.8mb 55f 53f
3:00 8.5ft 11s 27 34 mph 1019.8mb 55f 53f
2:00 8ft 11s 25 31 mph 1019.7mb 55f 53f
1:00 7ft 12s 27 34 mph 1019.4mb 55f 54f
12:00 6.5ft 12s 22 29 mph 1019.2mb 55f 54f
11:00 7ft 13s 22 27 mph 1018.9mb 55f 53f
10:00 7.5ft 13s 18 20 mph 1018.6mb 55f 54f
9:00 7ft 13s 20 25 mph 1018.9mb 55f 53f
8:00 8ft 14s 20 25 mph 1018.7mb 55f 53f
7:00 7.5ft 13s 22 25 mph 1018.4mb 55f 53f
6:00 8.5ft 11s 20 25 mph 1018.5mb 55f 53f
5:00 8ft 14s 22 27 mph 1018.5mb 55f 53f
4:00 8ft 10s 27 31 mph 1018.5mb 55f 54f
3:00 7.5ft 10s 20 25 mph 1018.6mb 55f 55f
2:00 7.5ft 11s 22 27 mph 1018.7mb 55f 54f
1:00 7.5ft 11s 22 27 mph 1018.6mb 55f 55f
12:00 7ft 11s 22 27 mph 1018.8mb 55f 54f
lun 05/22 11:00 7ft 11s 22 31 mph 1018.8mb 55f 54f
10:00 6.5ft 10s 22 29 mph 1018.9mb 55f 56f
9:00 6ft 10s 22 29 mph 1019mb 55f 56f
8:00 6.5ft 10s 22 27 mph 1019.1mb 54f 56f
7:00 6.5ft 9s 20 25 mph 1019.6mb 54f 56f
6:00 6ft 10s 18 22 mph 1020.5mb 55f 56f
5:00 6.5ft 10s 20 25 mph 1021mb 55f 56f
4:00 6.5ft 10s 22 27 mph 1021.4mb 55f 56f
3:00 7ft 10s 13 18 mph 1021.8mb 55f 56f
2:00 7ft 11s 16 20 mph 1022mb 54f 56f
1:00 6.5ft 11s 16 20 mph 1022.4mb 55f 56f
12:00 6.5ft 10s 7 9 mph 1022.3mb 54f 56f
11:00 6.5ft 10s 9 13 mph 1022.3mb 54f 55f
10:00 6.5ft 10s 4 9 mph 1022mb 54f 55f
9:00 6ft 10s 7 9 mph 1022.3mb 54f 55f
8:00 6ft 10s 2 4 mph 1021.9mb 54f 55f
7:00 6ft 10s 9 11 mph 1022mb 54f 55f
6:00 5.5ft 10s 16 20 mph 1022.4mb 54f 55f
5:00 5.5ft 10s 13 16 mph 1022.4mb 54f 55f
4:00 5.5ft 10s 9 13 mph 1022.3mb 54f 55f
3:00 5ft 10s 11 13 mph 1022.5mb 54f 55f
2:00 5.5ft 10s 13 16 mph 1022.5mb 54f 55f
1:00 5ft 10s 13 18 mph 1022.6mb 54f 55f
12:00 5ft 10s 16 18 mph 1022.7mb 53f 55f
dom 05/21 11:00 5ft 10s 16 18 mph 1022.8mb 54f 55f
10:00 5ft 11s 18 22 mph 1023mb 54f 55f
9:00 4.5ft 11s 18 20 mph 1023mb 54f 55f
8:00 4.5ft 11s 18 20 mph 1023.1mb 54f 55f
7:00 3.5ft 10s 13 16 mph 1023.4mb 54f 55f
6:00 4ft 11s 13 16 mph 1024mb 54f 53f
5:00 3.5ft 10s 18 20 mph 1024.5mb 54f 52f
4:00 3ft 10s 11 13 mph 1024.8mb 54f 54f
3:00 3ft 10s 11 16 mph 1025.2mb 54f 54f
2:00 3ft 10s 13 16 mph 1025.8mb 54f 53f
1:00 3.5ft 10s 13 16 mph 1026mb 54f 53f
12:00 3.5ft 11s 4 9 mph 1025.8mb 53f 52f
11:00 3.5ft 10s 7 9 mph 1025.9mb 53f 52f
10:00 4ft 10s 9 11 mph 1025.7mb 53f 52f
9:00 3.5ft 10s 9 11 mph 1025.6mb 53f 52f
8:00 4ft 10s 11 13 mph 1025.4mb 53f 52f
7:00 4.5ft 10s 11 13 mph 1025.2mb 53f 51f
6:00 4.5ft 11s 11 13 mph 1025mb 53f 51f
5:00 4.5ft 10s 13 16 mph 1024.9mb 53f 51f
4:00 4.5ft 11s 13 16 mph 1024.8mb 53f 51f
3:00 4.5ft 5s 13 18 mph 1024.8mb 53f 51f
2:00 5ft 5s 16 18 mph 1024.7mb 53f 51f
1:00 5ft 11s 18 20 mph 1024.5mb 53f 51f
12:00 5ft 10s 18 20 mph 1024.5mb 54f 51f
sáb 05/20 11:00 5ft 10s 18 22 mph 1024.2mb 54f 51f
10:00 5ft 10s 18 22 mph 1024mb 54f 51f
9:00 5ft 11s 20 25 mph 1024mb 54f 51f
8:00 5ft 10s 18 22 mph 1023.8mb 54f 51f
7:00 5ft 10s 20 22 mph 1023.8mb 54f 51f
6:00 5ft 11s 18 20 mph 1024.1mb 55f 52f
5:00 5ft 11s 16 20 mph 1024.4mb 55f 53f
4:00 4.5ft 12s 16 18 mph 1024.6mb 54f 53f
3:00 4.5ft 11s 16 18 mph 1024.8mb 54f 53f
2:00 4.5ft 10s 13 18 mph 1024.7mb 54f 53f
1:00 4.5ft 10s 13 16 mph 1024.8mb 54f 53f
12:00 4.5ft 9s 9 11 mph 1024.4mb 53f 52f
11:00 4.5ft 8s 4 9 mph 1024mb 53f 51f